createdAt,value
2023-02-06T00:01:38.784Z,77.50
2023-02-06T00:04:06.156Z,77.70
2023-02-06T00:06:33.627Z,77.40
2023-02-06T00:09:01.150Z,78.20
2023-02-06T00:11:28.315Z,78.30
2023-02-06T00:13:55.512Z,78.40
2023-02-06T00:16:27.864Z,79.70
2023-02-06T00:18:56.192Z,78.80
2023-02-06T00:21:25.974Z,78.40
2023-02-06T00:23:56.424Z,78.40
2023-02-06T00:26:24.780Z,78.50
2023-02-06T00:28:52.175Z,77.70
2023-02-06T00:31:19.331Z,78.60
2023-02-06T00:33:46.547Z,79.90
2023-02-06T00:36:13.636Z,79.80
2023-02-06T00:38:40.801Z,77.50
2023-02-06T00:41:07.976Z,77.60
2023-02-06T00:43:35.108Z,77.30
2023-02-06T00:46:02.430Z,77.70
2023-02-06T00:48:29.708Z,78.30
2023-02-06T00:50:56.778Z,77.40
2023-02-06T00:53:23.874Z,79.50
2023-02-06T00:55:51.035Z,78.60
2023-02-06T00:58:18.024Z,80.00
2023-02-06T01:00:45.182Z,79.60
2023-02-06T01:03:12.592Z,79.80
2023-02-06T01:05:39.915Z,79.50
2023-02-06T01:08:07.136Z,78.20
2023-02-06T01:10:34.582Z,79.30
2023-02-06T01:13:01.721Z,80.80
2023-02-06T01:15:29.317Z,77.20
2023-02-06T01:17:56.372Z,78.60
2023-02-06T01:20:24.059Z,81.40
2023-02-06T01:22:51.610Z,80.20
2023-02-06T01:25:19.330Z,80.70
2023-02-06T01:27:46.572Z,79.00
2023-02-06T01:30:14.150Z,79.00
2023-02-06T01:32:42.023Z,80.70
2023-02-06T01:35:11.169Z,81.20
2023-02-06T01:37:39.614Z,79.80
2023-02-06T01:40:09.507Z,80.70
2023-02-06T01:42:38.347Z,80.60
2023-02-06T01:45:27.234Z,83.00
2023-02-06T01:48:05.695Z,79.70
2023-02-06T01:50:35.040Z,82.00
2023-02-06T01:53:05.022Z,82.00
2023-02-06T01:55:32.856Z,81.30
2023-02-06T01:58:02.473Z,80.20
2023-02-06T02:00:29.630Z,81.80
2023-02-06T02:02:56.927Z,81.00
2023-02-06T02:05:24.056Z,81.70
2023-02-06T02:08:02.936Z,82.50
2023-02-06T02:10:31.248Z,83.10
2023-02-06T02:12:58.684Z,88.70
2023-02-06T02:15:39.652Z,85.40
2023-02-06T02:18:27.329Z,87.60
2023-02-06T02:20:54.320Z,86.20
2023-02-06T02:23:37.734Z,89.00
2023-02-06T02:26:14.014Z,87.30
2023-02-06T02:29:12.018Z,87.00
2023-02-06T02:32:16.779Z,87.60
2023-02-06T02:35:07.344Z,88.90
2023-02-06T02:37:34.406Z,89.00
2023-02-06T02:40:31.249Z,89.20
2023-02-06T02:43:26.292Z,90.00
2023-02-06T02:46:14.596Z,91.20
2023-02-06T02:48:45.784Z,91.30
2023-02-06T02:51:13.490Z,91.50
2023-02-06T02:53:40.770Z,92.10
2023-02-06T02:56:21.132Z,93.20
2023-02-06T02:58:54.403Z,94.20
2023-02-06T03:01:29.266Z,94.70
2023-02-06T03:04:01.087Z,94.90
2023-02-06T03:06:49.617Z,95.40
2023-02-06T03:09:22.858Z,97.00
2023-02-06T03:12:18.166Z,96.90
2023-02-06T03:14:56.392Z,96.80
2023-02-06T03:17:35.024Z,96.50
2023-02-06T03:20:04.610Z,96.50
2023-02-06T03:22:34.159Z,97.40
2023-02-06T03:25:05.136Z,97.40
2023-02-06T03:27:34.311Z,97.60
2023-02-06T03:30:04.676Z,97.90
2023-02-06T03:32:34.382Z,99.50
2023-02-06T03:35:10.534Z,99.50
2023-02-06T03:37:38.934Z,99.70
2023-02-06T03:40:08.019Z,99.20
2023-02-06T03:42:39.450Z,99.50
2023-02-06T03:45:15.041Z,99.90
2023-02-06T03:47:44.694Z,99.90
2023-02-06T03:50:13.849Z,99.90
2023-02-06T03:52:47.241Z,99.80
2023-02-06T03:55:16.627Z,99.90
2023-02-06T03:57:48.337Z,99.90
2023-02-06T04:00:15.785Z,99.90
2023-02-06T04:02:44.187Z,99.90
2023-02-06T04:05:11.250Z,99.90
2023-02-06T04:07:38.506Z,99.90
2023-02-06T04:10:05.958Z,99.10
2023-02-06T04:12:33.127Z,99.60
2023-02-06T04:15:00.267Z,99.50
2023-02-06T04:17:43.157Z,99.90
2023-02-06T04:20:13.923Z,99.80
2023-02-06T04:22:41.686Z,99.60
2023-02-06T04:25:09.218Z,99.10
2023-02-06T04:27:37.340Z,99.10
2023-02-06T04:30:05.373Z,98.30
2023-02-06T04:32:32.514Z,97.40
2023-02-06T04:34:59.666Z,97.70
2023-02-06T04:37:26.838Z,99.20
2023-02-06T04:39:54.051Z,99.20
2023-02-06T04:42:21.207Z,99.20
2023-02-06T04:44:48.203Z,98.90
2023-02-06T04:47:15.311Z,98.20
2023-02-06T04:49:42.428Z,97.30
2023-02-06T04:52:09.592Z,96.70
2023-02-06T04:54:36.684Z,96.40
2023-02-06T04:57:03.965Z,96.00
2023-02-06T04:59:31.101Z,96.30
2023-02-06T05:01:58.288Z,96.70
2023-02-06T05:04:25.442Z,97.20
2023-02-06T05:06:52.530Z,97.60
2023-02-06T05:09:19.696Z,97.70
2023-02-06T05:11:46.751Z,97.60
2023-02-06T05:14:13.811Z,97.20
2023-02-06T05:16:40.873Z,96.70
2023-02-06T05:19:08.004Z,96.90
2023-02-06T05:21:34.997Z,96.20
2023-02-06T05:24:02.145Z,96.60
2023-02-06T05:26:29.289Z,96.50
2023-02-06T05:28:56.350Z,96.30
2023-02-06T05:31:23.584Z,96.50
2023-02-06T05:33:55.159Z,97.00
2023-02-06T05:36:23.258Z,97.30
2023-02-06T05:38:51.108Z,98.40
2023-02-06T05:41:19.083Z,98.60
2023-02-06T05:43:46.530Z,99.00
2023-02-06T05:46:13.862Z,99.90
2023-02-06T05:48:41.046Z,99.50
2023-02-06T05:51:08.642Z,99.90
2023-02-06T05:53:35.893Z,99.90
2023-02-06T05:56:03.061Z,99.90
2023-02-06T05:58:30.156Z,99.90
2023-02-06T06:00:57.266Z,99.90
2023-02-06T06:03:24.481Z,99.90
2023-02-06T06:05:54.209Z,99.90
2023-02-06T06:08:21.918Z,99.90
2023-02-06T06:10:52.907Z,99.90
2023-02-06T06:13:20.376Z,99.90
2023-02-06T06:15:51.874Z,99.90
2023-02-06T06:18:20.430Z,99.90
2023-02-06T06:20:48.126Z,99.90
2023-02-06T06:23:15.274Z,99.90
2023-02-06T06:25:42.295Z,99.90
2023-02-06T06:28:09.399Z,99.90
2023-02-06T06:30:37.822Z,99.90
2023-02-06T06:33:05.273Z,99.90
2023-02-06T06:35:32.898Z,99.90
2023-02-06T06:38:00.206Z,99.90
2023-02-06T06:40:27.222Z,99.90
2023-02-06T06:42:54.273Z,99.90
2023-02-06T06:45:21.682Z,99.90
2023-02-06T06:47:48.759Z,99.90
2023-02-06T06:50:15.919Z,99.90
2023-02-06T06:52:42.905Z,99.90
2023-02-06T06:55:09.971Z,99.90
2023-02-06T06:57:37.106Z,99.10
2023-02-06T07:00:05.310Z,99.90
2023-02-06T07:02:32.396Z,99.90
2023-02-06T07:05:00.744Z,99.90
2023-02-06T07:07:27.899Z,99.90
2023-02-06T07:09:55.266Z,99.60
2023-02-06T07:12:22.571Z,99.00
2023-02-06T07:14:49.628Z,99.80
2023-02-06T07:17:16.640Z,97.30
2023-02-06T07:19:48.081Z,96.40
2023-02-06T07:22:15.759Z,94.10
2023-02-06T07:24:42.885Z,91.90
2023-02-06T07:27:10.061Z,90.80
2023-02-06T07:29:38.014Z,86.40
2023-02-06T07:32:06.032Z,86.60
2023-02-06T07:34:33.071Z,88.20
2023-02-06T07:37:01.033Z,84.90
2023-02-06T07:39:28.570Z,83.50
2023-02-06T07:41:55.836Z,82.00
2023-02-06T07:44:23.017Z,83.40
2023-02-06T07:46:52.624Z,84.70
2023-02-06T07:49:19.738Z,83.20
2023-02-06T07:51:47.102Z,82.80
2023-02-06T07:54:14.612Z,81.90
2023-02-06T07:56:41.879Z,79.90
2023-02-06T07:59:09.343Z,78.60
2023-02-06T08:01:37.043Z,79.60
2023-02-06T08:04:04.300Z,78.90
2023-02-06T08:06:31.839Z,78.50
2023-02-06T08:08:59.228Z,79.60
2023-02-06T08:11:30.244Z,77.90
2023-02-06T08:13:57.577Z,77.70
2023-02-06T08:16:26.153Z,76.50
2023-02-06T08:18:53.403Z,75.80
2023-02-06T08:21:23.409Z,75.80
2023-02-06T08:23:57.904Z,75.70
2023-02-06T08:26:27.217Z,75.20
2023-02-06T08:28:56.177Z,73.60
2023-02-06T08:31:30.689Z,75.70
2023-02-06T08:33:58.101Z,73.10
2023-02-06T08:36:26.211Z,70.70
2023-02-06T08:38:54.096Z,70.30
2023-02-06T08:41:27.604Z,68.60
2023-02-06T08:43:55.533Z,68.10
2023-02-06T08:46:24.786Z,67.00
2023-02-06T08:49:19.478Z,66.50
2023-02-06T08:51:47.336Z,66.60
2023-02-06T08:54:17.553Z,67.00
2023-02-06T08:56:45.695Z,66.10
2023-02-06T08:59:14.699Z,65.60
2023-02-06T09:01:43.012Z,65.20
2023-02-06T09:04:11.500Z,66.80
2023-02-06T09:06:42.011Z,67.30
2023-02-06T09:09:10.610Z,67.10
2023-02-06T09:11:38.360Z,66.50
2023-02-06T09:14:06.687Z,68.10
2023-02-06T09:16:34.093Z,67.50
2023-02-06T09:19:03.295Z,67.30
2023-02-06T09:21:33.319Z,68.20
2023-02-06T09:24:03.419Z,67.30
2023-02-06T09:26:33.501Z,66.80
2023-02-06T09:29:03.327Z,66.80
2023-02-06T09:31:31.012Z,66.40
2023-02-06T09:34:00.443Z,66.70
2023-02-06T09:36:30.415Z,66.60
2023-02-06T09:38:58.380Z,66.00
2023-02-06T09:41:37.139Z,64.80
2023-02-06T09:44:25.650Z,65.90
2023-02-06T09:46:59.189Z,66.00
2023-02-06T09:49:42.645Z,65.70
2023-02-06T09:52:38.929Z,63.30
2023-02-06T09:55:45.184Z,64.50
2023-02-06T09:58:27.352Z,63.50
2023-02-06T10:01:05.325Z,64.90
2023-02-06T10:03:44.726Z,63.50
2023-02-06T10:06:19.479Z,62.50
2023-02-06T10:09:01.563Z,64.40
2023-02-06T10:11:56.112Z,66.00
2023-02-06T10:14:34.831Z,65.20
2023-02-06T10:17:33.695Z,64.20
2023-02-06T10:20:11.864Z,61.70
2023-02-06T10:23:02.310Z,61.30
2023-02-06T10:25:39.909Z,60.60
2023-02-06T11:42:05.964Z,59.80
2023-02-06T11:44:41.736Z,60.00
2023-02-06T11:47:20.844Z,60.60
2023-02-06T11:49:48.408Z,60.60
2023-02-06T11:52:33.621Z,60.80
2023-02-06T11:55:03.425Z,60.60
2023-02-06T11:57:34.093Z,61.90
2023-02-06T12:00:23.275Z,59.60
2023-02-06T12:02:52.765Z,61.20
2023-02-06T12:05:22.180Z,59.50
2023-02-06T12:08:06.555Z,58.50
2023-02-06T12:10:36.750Z,59.40
2023-02-06T12:13:18.848Z,59.10
2023-02-06T12:15:53.542Z,59.00
2023-02-06T12:18:35.133Z,59.40
2023-02-06T12:21:07.428Z,58.10
2023-02-06T12:23:41.217Z,59.80
2023-02-06T12:26:15.375Z,59.40
2023-02-06T12:29:00.460Z,59.70
2023-02-06T12:31:32.354Z,60.30
2023-02-06T12:34:11.351Z,59.80
2023-02-06T12:37:10.872Z,60.30
2023-02-06T12:39:38.093Z,60.90
2023-02-06T12:42:40.494Z,59.90
2023-02-06T12:45:32.747Z,59.70
2023-02-06T12:48:14.901Z,59.90
2023-02-06T12:51:14.577Z,59.60
2023-02-06T12:53:52.603Z,59.70
2023-02-06T12:56:54.996Z,59.30
2023-02-06T12:59:58.858Z,59.50
2023-02-06T13:02:40.924Z,59.10
2023-02-06T13:05:25.289Z,60.20
2023-02-06T13:07:54.690Z,59.70
2023-02-06T13:10:26.586Z,59.30
2023-02-06T13:12:56.238Z,59.60
2023-02-06T13:15:30.060Z,60.50
2023-02-06T13:17:57.930Z,59.40
2023-02-06T13:20:26.702Z,59.90
2023-02-06T13:23:12.242Z,60.40
2023-02-06T13:25:39.347Z,60.60
2023-02-06T13:28:25.740Z,59.60
2023-02-06T13:31:04.690Z,59.80
2023-02-06T13:33:48.123Z,60.40
2023-02-06T13:36:41.693Z,60.70
2023-02-06T13:39:34.922Z,61.70
2023-02-06T13:42:32.811Z,60.80
2023-02-06T13:45:03.451Z,61.90
2023-02-06T13:48:08.147Z,60.20
2023-02-06T13:50:56.584Z,60.90
2023-02-06T13:53:41.561Z,60.80
2023-02-06T13:56:40.186Z,59.60
2023-02-06T13:59:18.474Z,60.10
2023-02-06T14:01:45.862Z,60.20
2023-02-06T14:04:20.104Z,59.90
2023-02-06T14:07:23.882Z,59.90
2023-02-06T14:10:34.534Z,60.60
2023-02-06T14:13:04.565Z,60.80
2023-02-06T14:15:56.672Z,61.20
2023-02-06T14:18:46.119Z,60.60
2023-02-06T14:21:32.286Z,61.30
2023-02-06T14:23:59.381Z,61.00
2023-02-06T14:26:35.988Z,61.10
2023-02-06T14:29:15.349Z,61.40
2023-02-06T14:31:57.446Z,61.10
2023-02-06T14:34:55.397Z,60.20
2023-02-06T14:37:37.640Z,59.70
2023-02-06T14:40:31.469Z,60.50
2023-02-06T14:43:02.491Z,61.60
2023-02-06T14:45:41.681Z,61.60
2023-02-06T14:48:24.745Z,60.40
2023-02-06T14:50:57.012Z,60.50
2023-02-06T14:53:31.475Z,60.90
2023-02-06T14:56:17.775Z,60.60
2023-02-06T14:58:46.628Z,60.10
2023-02-06T15:01:13.647Z,60.30
2023-02-06T15:03:42.002Z,60.80
2023-02-06T15:06:33.731Z,60.60
2023-02-06T15:09:01.595Z,60.30
2023-02-06T15:11:32.863Z,60.40
2023-02-06T15:14:21.066Z,60.40
2023-02-06T15:16:50.251Z,61.10
2023-02-06T15:19:26.856Z,60.40
2023-02-06T15:22:13.028Z,59.40
2023-02-06T15:24:48.813Z,59.50
2023-02-06T15:27:29.711Z,60.10
2023-02-06T15:29:58.236Z,60.10
2023-02-06T15:32:28.018Z,60.00
2023-02-06T15:34:55.587Z,60.60
2023-02-06T15:37:27.088Z,59.80
2023-02-06T15:39:54.656Z,60.10
2023-02-06T15:42:22.967Z,60.60
2023-02-06T15:44:50.738Z,60.90
2023-02-06T15:47:20.519Z,62.70
2023-02-06T15:49:50.973Z,60.80
2023-02-06T15:52:36.453Z,60.60
2023-02-06T15:55:04.988Z,60.90
2023-02-06T15:57:38.706Z,61.40
2023-02-06T16:00:14.325Z,61.70
2023-02-06T16:02:41.726Z,61.60
2023-02-06T16:05:18.798Z,61.80
2023-02-06T16:07:48.581Z,61.70
2023-02-06T16:10:26.971Z,62.00
2023-02-06T16:12:55.871Z,61.50
2023-02-06T16:15:28.436Z,61.20
2023-02-06T16:17:56.764Z,61.80
2023-02-06T16:20:34.200Z,61.30
2023-02-06T16:23:30.081Z,61.30
2023-02-06T16:26:16.199Z,61.00
2023-02-06T16:28:59.418Z,61.30
2023-02-06T16:31:28.855Z,62.30
2023-02-06T16:34:03.422Z,62.50
2023-02-06T16:36:32.673Z,63.00
2023-02-06T16:39:04.672Z,61.50
2023-02-06T16:41:37.221Z,61.40
2023-02-06T16:44:10.398Z,61.40
2023-02-06T16:46:37.640Z,61.60
2023-02-06T16:49:17.504Z,62.90
2023-02-06T16:51:46.132Z,63.20
2023-02-06T16:54:26.043Z,63.00
2023-02-06T16:56:54.711Z,63.40
2023-02-06T16:59:22.500Z,63.90
2023-02-06T17:01:49.764Z,63.10
2023-02-06T17:04:16.948Z,62.20
2023-02-06T17:06:44.069Z,62.00
2023-02-06T17:09:14.056Z,62.40
2023-02-06T17:11:41.101Z,63.20
2023-02-06T17:14:09.314Z,70.90
2023-02-06T17:16:36.703Z,67.70
2023-02-06T17:19:03.872Z,64.80
2023-02-06T17:21:33.495Z,64.40
2023-02-06T17:24:01.588Z,65.90
2023-02-06T17:26:33.002Z,62.90
2023-02-06T17:29:05.131Z,64.40
2023-02-06T17:31:36.041Z,63.50
2023-02-06T17:34:03.669Z,64.00
2023-02-06T17:36:41.055Z,66.30
2023-02-06T17:39:11.583Z,64.60
2023-02-06T17:41:42.365Z,64.50
2023-02-06T17:44:09.617Z,65.20
2023-02-06T17:46:37.202Z,64.20
2023-02-06T17:49:05.237Z,66.00
2023-02-06T17:51:32.599Z,67.40
2023-02-06T17:53:59.879Z,65.20
2023-02-06T17:56:27.008Z,63.50
2023-02-06T17:58:54.206Z,63.80
2023-02-06T18:01:23.707Z,64.20
2023-02-06T18:03:51.480Z,63.90
2023-02-06T18:06:20.130Z,64.20
2023-02-06T18:08:48.272Z,63.90
2023-02-06T18:11:21.304Z,63.60
2023-02-06T18:13:49.832Z,64.00
2023-02-06T18:16:19.956Z,64.20
2023-02-06T18:18:47.446Z,64.20
2023-02-06T18:21:16.897Z,63.90
2023-02-06T18:23:44.095Z,64.90
2023-02-06T18:26:11.166Z,64.30
2023-02-06T18:28:39.971Z,64.70
2023-02-06T18:31:30.178Z,65.20
2023-02-06T18:33:57.816Z,65.10
2023-02-06T18:36:25.527Z,64.00
2023-02-06T18:38:53.391Z,64.60
2023-02-06T18:41:39.291Z,64.80
2023-02-06T18:44:09.306Z,65.20
2023-02-06T18:46:38.171Z,65.40
2023-02-06T18:49:06.280Z,65.40
2023-02-06T18:51:33.907Z,64.90
2023-02-06T18:54:01.260Z,65.80
2023-02-06T18:56:28.504Z,64.60
2023-02-06T18:58:55.807Z,65.00
2023-02-06T19:01:24.854Z,65.20
2023-02-06T19:03:58.873Z,65.10
2023-02-06T19:06:32.072Z,64.10
2023-02-06T19:08:59.945Z,64.80
2023-02-06T19:11:33.165Z,64.50
2023-02-06T19:14:02.025Z,64.10
2023-02-06T19:16:31.973Z,65.50
2023-02-06T19:18:59.206Z,65.60
2023-02-06T19:21:30.080Z,65.10
2023-02-06T19:24:00.169Z,65.20
2023-02-06T19:26:28.510Z,66.00
2023-02-06T19:28:56.670Z,65.60
2023-02-06T19:31:24.652Z,64.70
2023-02-06T19:33:58.758Z,64.50
2023-02-06T19:36:28.010Z,65.70
2023-02-06T19:39:00.109Z,65.90
2023-02-06T19:41:29.864Z,65.50
2023-02-06T19:44:04.323Z,65.10
2023-02-06T19:46:31.578Z,65.30
2023-02-06T19:49:05.050Z,65.00
2023-02-06T19:51:38.006Z,65.10
2023-02-06T19:54:12.237Z,65.20
2023-02-06T19:56:43.195Z,64.90
2023-02-06T19:59:19.951Z,65.00
2023-02-06T20:01:54.100Z,65.10
2023-02-06T20:04:23.962Z,65.90
2023-02-06T20:06:51.493Z,66.20
2023-02-06T20:09:20.741Z,66.80
2023-02-06T20:11:50.049Z,66.20
2023-02-06T20:14:18.764Z,66.70
2023-02-06T20:16:46.563Z,66.30
2023-02-06T20:19:25.001Z,66.60
2023-02-06T20:21:56.391Z,66.20
2023-02-06T20:24:27.792Z,66.50
2023-02-06T20:26:58.121Z,66.20
2023-02-06T20:29:29.181Z,66.60
2023-02-06T20:31:58.631Z,65.60
2023-02-06T20:34:26.903Z,66.20
2023-02-06T20:36:54.431Z,67.00
2023-02-06T20:39:22.766Z,67.00
2023-02-06T20:41:50.881Z,67.70
2023-02-06T20:44:19.300Z,68.50
2023-02-06T20:46:47.304Z,68.10
2023-02-06T20:49:18.207Z,68.10
2023-02-06T20:51:45.272Z,68.80
2023-02-06T20:54:12.525Z,69.10
2023-02-06T20:56:40.742Z,68.70
2023-02-06T20:59:08.844Z,70.50
2023-02-06T21:01:36.808Z,72.00
2023-02-06T21:04:06.312Z,69.60
2023-02-06T21:06:35.268Z,70.60
2023-02-06T21:09:03.420Z,69.00
2023-02-06T21:11:41.967Z,69.30
2023-02-06T21:14:09.367Z,69.30
2023-02-06T21:16:38.382Z,69.60
2023-02-06T21:19:08.456Z,69.90
2023-02-06T21:21:37.925Z,70.20
2023-02-06T21:24:06.113Z,70.50
2023-02-06T21:26:34.270Z,70.60
2023-02-06T21:29:02.694Z,70.40
2023-02-06T21:31:37.513Z,70.80
2023-02-06T21:34:10.280Z,70.90
2023-02-06T21:36:39.748Z,71.40
2023-02-06T21:39:07.888Z,71.90
2023-02-06T21:41:38.621Z,72.00
2023-02-06T21:44:05.913Z,71.30
2023-02-06T21:46:33.787Z,71.10
2023-02-06T21:49:01.052Z,70.70
2023-02-06T21:51:28.382Z,71.00
2023-02-06T21:53:56.594Z,70.90
2023-02-06T21:56:26.896Z,70.70
2023-02-06T21:58:54.614Z,70.70
2023-02-06T22:01:33.667Z,71.10
2023-02-06T22:04:01.962Z,71.70
2023-02-06T22:06:29.680Z,72.00
2023-02-06T22:09:02.852Z,72.20
2023-02-06T22:11:30.895Z,72.70
2023-02-06T22:14:11.574Z,72.90
2023-02-06T22:17:23.416Z,72.90
2023-02-06T22:19:50.496Z,73.10
2023-02-06T22:22:17.584Z,73.80
2023-02-06T22:24:44.677Z,74.50
2023-02-06T22:27:12.205Z,74.90
2023-02-06T22:29:39.398Z,75.40
2023-02-06T22:32:07.353Z,77.60
2023-02-06T22:34:34.697Z,76.10
2023-02-06T22:37:01.769Z,76.00
2023-02-06T22:39:28.834Z,75.60
2023-02-06T22:41:56.087Z,74.70
2023-02-06T22:44:23.135Z,74.10
2023-02-06T22:46:52.367Z,74.50
2023-02-06T22:49:20.643Z,73.60
2023-02-06T22:51:48.122Z,73.50
2023-02-06T22:54:15.643Z,73.90
2023-02-06T22:56:44.048Z,74.60
2023-02-06T22:59:11.281Z,74.80
2023-02-06T23:01:45.893Z,75.70
2023-02-06T23:04:16.846Z,75.60
2023-02-06T23:06:44.441Z,75.70
2023-02-06T23:09:19.806Z,76.00
2023-02-06T23:11:47.483Z,76.00
2023-02-06T23:14:16.614Z,76.40
2023-02-06T23:16:44.660Z,76.80
2023-02-06T23:19:13.534Z,77.20
2023-02-06T23:21:42.500Z,77.60
2023-02-06T23:24:11.058Z,78.30
2023-02-06T23:26:39.025Z,79.70
2023-02-06T23:29:07.838Z,79.90
2023-02-06T23:31:36.070Z,80.30
2023-02-06T23:34:03.848Z,81.10
2023-02-06T23:36:30.877Z,81.60
2023-02-06T23:39:00.418Z,82.30
2023-02-06T23:41:29.004Z,82.70
2023-02-06T23:44:05.262Z,83.30
2023-02-06T23:46:34.637Z,83.90
2023-02-06T23:49:01.846Z,84.60
2023-02-06T23:51:29.037Z,86.00
2023-02-06T23:53:56.332Z,84.70
2023-02-06T23:56:29.271Z,81.40
2023-02-06T23:58:58.019Z,82.40
